createdAt,value
2018-04-10T00:00:09.477Z,95.60
2018-04-10T00:02:36.968Z,95.70
2018-04-10T00:05:04.448Z,95.70
2018-04-10T00:07:31.936Z,95.80
2018-04-10T00:10:00.193Z,95.90
2018-04-10T00:12:27.672Z,95.80
2018-04-10T00:14:55.917Z,96.00
2018-04-10T00:17:23.413Z,96.00
2018-04-10T00:19:50.905Z,96.20
2018-04-10T00:22:18.401Z,96.00
2018-04-10T00:24:45.937Z,95.80
2018-04-10T00:27:13.441Z,95.80
2018-04-10T00:29:40.933Z,95.90
2018-04-10T00:32:08.441Z,96.00
2018-04-10T00:34:36.696Z,96.70
2018-04-10T00:37:04.185Z,96.70
2018-04-10T00:39:31.693Z,96.60
2018-04-10T00:41:59.186Z,96.60
2018-04-10T00:44:27.440Z,95.70
2018-04-10T00:46:54.940Z,95.70
2018-04-10T00:49:22.450Z,95.30
2018-04-10T00:51:49.932Z,95.30
2018-04-10T00:54:18.177Z,95.40
2018-04-10T00:56:45.681Z,95.40
2018-04-10T00:59:13.168Z,95.50
2018-04-10T01:01:40.646Z,95.90
2018-04-10T01:04:08.117Z,96.20
2018-04-10T01:06:35.577Z,96.80
2018-04-10T01:09:03.080Z,95.40
2018-04-10T01:11:30.540Z,95.70
2018-04-10T01:13:58.043Z,95.70
2018-04-10T01:16:25.513Z,95.90
2018-04-10T01:18:53.753Z,96.20
2018-04-10T01:21:21.217Z,96.20
2018-04-10T01:23:48.731Z,96.30
2018-04-10T01:26:16.227Z,96.40
2018-04-10T01:28:43.723Z,96.40
2018-04-10T01:31:11.998Z,96.70
2018-04-10T01:33:40.216Z,96.70
2018-04-10T01:36:07.685Z,96.70
2018-04-10T01:38:36.295Z,96.90
2018-04-10T01:41:03.791Z,96.90
2018-04-10T01:43:31.298Z,96.70
2018-04-10T01:45:58.806Z,96.60
2018-04-10T01:48:26.274Z,96.50
2018-04-10T01:50:53.784Z,96.60
2018-04-10T01:53:21.238Z,96.90
2018-04-10T01:55:48.752Z,96.70
2018-04-10T01:58:16.256Z,96.50
2018-04-10T02:00:43.750Z,96.50
2018-04-10T02:03:11.246Z,96.70
2018-04-10T02:05:38.709Z,96.80
2018-04-10T02:08:06.192Z,96.70
2018-04-10T02:13:25.069Z,97.20
2018-04-10T02:15:53.399Z,97.00
2018-04-10T02:18:20.925Z,97.00
2018-04-10T02:20:48.432Z,97.10
2018-04-10T02:23:15.998Z,97.00
2018-04-10T02:25:43.566Z,97.00
2018-04-10T02:28:11.115Z,97.10
2018-04-10T02:30:38.637Z,97.10
2018-04-10T02:33:06.165Z,97.10
2018-04-10T02:35:34.440Z,97.10
2018-04-10T02:38:02.765Z,96.90
2018-04-10T02:40:30.330Z,96.90
2018-04-10T02:42:57.877Z,96.30
2018-04-10T02:45:25.443Z,96.30
2018-04-10T02:47:53.008Z,96.50
2018-04-10T02:50:20.524Z,96.80
2018-04-10T02:52:48.105Z,97.50
2018-04-10T02:55:15.693Z,97.40
2018-04-10T02:57:43.238Z,97.40
2018-04-10T03:00:10.769Z,97.90
2018-04-10T03:02:38.333Z,97.90
2018-04-10T03:05:05.840Z,98.10
2018-04-10T03:07:33.374Z,97.60
2018-04-10T03:10:00.902Z,96.50
2018-04-10T03:12:28.409Z,95.90
2018-04-10T03:14:55.936Z,96.60
2018-04-10T03:17:23.470Z,96.80
2018-04-10T03:19:50.980Z,97.30
2018-04-10T03:22:18.541Z,97.20
2018-04-10T03:24:46.101Z,97.20
2018-04-10T03:27:13.618Z,97.00
2018-04-10T03:29:41.161Z,96.70
2018-04-10T03:32:08.705Z,96.70
2018-04-10T03:34:36.981Z,96.90
2018-04-10T03:37:05.290Z,96.90
2018-04-10T03:39:32.877Z,96.90
2018-04-10T03:42:00.425Z,97.10
2018-04-10T03:44:27.941Z,97.20
2018-04-10T03:46:55.496Z,97.10
2018-04-10T03:49:23.805Z,97.10
2018-04-10T03:51:51.351Z,97.10
2018-04-10T03:54:18.903Z,97.10
2018-04-10T03:56:47.161Z,97.60
2018-04-10T03:59:15.394Z,97.50
2018-04-10T04:01:42.910Z,97.50
2018-04-10T04:04:11.149Z,97.80
2018-04-10T04:06:38.651Z,97.80
2018-04-10T04:09:06.147Z,98.20
2018-04-10T04:11:33.670Z,98.00
2018-04-10T04:14:01.171Z,97.80
2018-04-10T04:16:40.534Z,97.80
2018-04-10T04:19:19.810Z,97.60
2018-04-10T04:21:55.946Z,97.70
2018-04-10T04:24:24.198Z,97.80
2018-04-10T04:26:51.746Z,97.80
2018-04-10T04:29:19.230Z,97.90
2018-04-10T04:31:47.503Z,97.90
2018-04-10T04:34:15.773Z,97.70
2018-04-10T04:36:44.055Z,97.80
2018-04-10T04:39:12.285Z,98.00
2018-04-10T04:41:39.782Z,97.90
2018-04-10T04:44:07.286Z,97.90
2018-04-10T04:46:34.774Z,98.00
2018-04-10T04:49:03.213Z,98.00
2018-04-10T04:51:30.701Z,97.80
2018-04-10T04:53:58.173Z,97.60
2018-04-10T04:56:25.695Z,97.10
2018-04-10T04:58:53.178Z,97.00
2018-04-10T05:01:21.658Z,97.00
2018-04-10T05:03:49.117Z,97.00
2018-04-10T05:06:21.915Z,96.80
2018-04-10T05:08:50.438Z,96.50
2018-04-10T05:11:19.839Z,96.70
2018-04-10T05:13:47.359Z,96.80
2018-04-10T05:16:14.855Z,96.80
2018-04-10T05:18:42.313Z,97.10
2018-04-10T05:21:09.833Z,97.10
2018-04-10T05:23:37.335Z,96.90
2018-04-10T05:26:04.842Z,96.60
2018-04-10T05:28:32.360Z,96.40
2018-04-10T05:30:59.862Z,95.60
2018-04-10T05:33:27.334Z,94.70
2018-04-10T05:35:55.583Z,95.20
2018-04-10T05:38:23.049Z,95.20
2018-04-10T05:40:50.530Z,92.70
2018-04-10T05:43:17.989Z,90.70
2018-04-10T05:45:45.475Z,87.40
2018-04-10T05:48:12.954Z,81.60
2018-04-10T05:50:40.696Z,78.70
2018-04-10T05:53:08.183Z,75.60
2018-04-10T05:55:35.691Z,73.60
2018-04-10T05:58:03.162Z,72.00
2018-04-10T06:00:30.625Z,69.40
2018-04-10T06:02:58.104Z,68.60
2018-04-10T06:05:25.569Z,68.40
2018-04-10T06:07:53.074Z,63.80
2018-04-10T06:10:20.565Z,62.00
2018-04-10T06:12:48.066Z,62.70
2018-04-10T06:15:15.570Z,61.90
2018-04-10T06:17:43.152Z,63.20
2018-04-10T06:20:11.385Z,63.00
2018-04-10T06:22:38.894Z,63.00
2018-04-10T06:25:06.370Z,60.90
2018-04-10T06:27:34.620Z,59.20
2018-04-10T06:30:02.106Z,59.10
2018-04-10T06:32:30.361Z,57.00
2018-04-10T06:34:57.829Z,56.90
2018-04-10T06:37:26.177Z,57.40
2018-04-10T06:39:53.647Z,57.00
2018-04-10T06:42:21.166Z,55.20
2018-04-10T06:44:48.643Z,55.70
2018-04-10T06:47:16.126Z,54.60
2018-04-10T06:49:43.647Z,55.30
2018-04-10T06:52:11.143Z,51.60
2018-04-10T06:54:38.653Z,49.60
2018-04-10T06:57:06.167Z,49.20
2018-04-10T06:59:33.657Z,50.00
2018-04-10T07:02:01.153Z,47.40
2018-04-10T07:04:28.669Z,47.40
2018-04-10T07:06:57.047Z,45.90
2018-04-10T07:09:24.529Z,46.40
2018-04-10T07:11:52.145Z,44.60
2018-04-10T07:14:20.385Z,42.20
2018-04-10T07:16:47.945Z,42.10
2018-04-10T07:19:15.516Z,42.50
2018-04-10T07:21:43.029Z,43.60
2018-04-10T07:24:10.543Z,45.40
2018-04-10T07:26:38.029Z,41.70
2018-04-10T07:29:05.550Z,41.00
2018-04-10T07:31:33.065Z,43.30
2018-04-10T07:34:00.714Z,43.00
2018-04-10T07:36:28.253Z,42.90
2018-04-10T07:38:56.556Z,40.40
2018-04-10T07:41:24.067Z,40.30
2018-04-10T07:43:51.600Z,40.70
2018-04-10T07:46:19.106Z,40.10
2018-04-10T07:48:47.475Z,38.20
2018-04-10T07:51:15.769Z,37.80
2018-04-10T07:53:43.275Z,37.80
2018-04-10T07:56:10.762Z,36.60
2018-04-10T07:58:39.060Z,38.30
2018-04-10T08:01:06.620Z,38.30
2018-04-10T08:03:34.167Z,35.80
2018-04-10T08:06:02.457Z,35.80
2018-04-10T08:08:30.003Z,35.80
2018-04-10T08:10:57.507Z,36.50
2018-04-10T08:13:25.043Z,36.50
2018-04-10T08:15:52.546Z,35.80
2018-04-10T08:18:20.037Z,35.60
2018-04-10T08:20:48.309Z,35.90
2018-04-10T08:23:16.587Z,35.20
2018-04-10T08:25:44.896Z,34.30
2018-04-10T08:28:12.421Z,34.20
2018-04-10T08:30:40.674Z,32.40
2018-04-10T08:33:08.172Z,32.30
2018-04-10T08:35:35.653Z,33.30
2018-04-10T08:38:03.169Z,33.20
2018-04-10T08:40:31.471Z,32.40
2018-04-10T08:42:58.971Z,32.40
2018-04-10T08:45:26.453Z,31.60
2018-04-10T08:47:54.715Z,40.20
2018-04-10T08:50:22.228Z,40.20
2018-04-10T08:52:50.343Z,43.30
2018-04-10T08:55:17.839Z,42.40
2018-04-10T08:57:45.349Z,47.20
2018-04-10T09:00:12.880Z,43.60
2018-04-10T09:02:40.391Z,47.70
2018-04-10T09:05:08.666Z,47.40
2018-04-10T09:07:36.954Z,48.10
2018-04-10T09:10:05.218Z,45.40
2018-04-10T09:12:33.465Z,46.50
2018-04-10T09:15:00.987Z,46.50
2018-04-10T09:17:28.490Z,48.80
2018-04-10T09:19:55.996Z,48.60
2018-04-10T09:22:23.465Z,48.60
2018-04-10T09:24:51.008Z,45.70
2018-04-10T09:27:18.492Z,47.90
2018-04-10T09:29:45.958Z,47.40
2018-04-10T09:32:13.504Z,47.50
2018-04-10T09:34:41.011Z,48.90
2018-04-10T09:37:09.288Z,48.40
2018-04-10T09:39:37.562Z,48.50
2018-04-10T09:42:05.810Z,47.80
2018-04-10T09:44:33.366Z,47.80
2018-04-10T09:47:00.871Z,49.40
2018-04-10T09:49:29.167Z,49.40
2018-04-10T09:51:56.626Z,49.40
2018-04-10T09:54:24.106Z,47.90
2018-04-10T09:56:51.623Z,48.10
2018-04-10T09:59:19.132Z,45.50
2018-04-10T10:01:47.405Z,49.30
2018-04-10T10:04:14.901Z,49.10
2018-04-10T10:06:42.423Z,48.50
2018-04-10T10:09:09.901Z,46.80
2018-04-10T10:11:37.372Z,47.10
2018-04-10T10:14:05.694Z,45.10
2018-04-10T10:16:33.194Z,45.00
2018-04-10T10:19:00.663Z,45.40
2018-04-10T10:21:28.910Z,47.10
2018-04-10T10:23:56.431Z,47.20
2018-04-10T10:26:23.945Z,47.30
2018-04-10T10:28:52.204Z,46.70
2018-04-10T10:31:19.744Z,46.70
2018-04-10T10:33:47.218Z,46.90
2018-04-10T10:36:14.714Z,47.50
2018-04-10T10:38:42.240Z,48.40
2018-04-10T10:41:10.066Z,48.30
2018-04-10T10:43:38.344Z,49.10
2018-04-10T10:46:05.851Z,49.10
2018-04-10T10:48:34.128Z,49.70
2018-04-10T10:51:02.377Z,49.10
2018-04-10T10:53:29.895Z,49.10
2018-04-10T10:55:57.354Z,49.00
2018-04-10T10:58:24.899Z,47.70
2018-04-10T11:00:52.402Z,49.30
2018-04-10T11:03:19.914Z,49.00
2018-04-10T11:05:47.414Z,47.60
2018-04-10T11:08:14.883Z,48.10
2018-04-10T11:10:42.357Z,47.80
2018-04-10T11:13:10.659Z,50.90
2018-04-10T11:15:38.175Z,50.30
2018-04-10T11:18:05.645Z,48.70
2018-04-10T11:20:33.901Z,48.60
2018-04-10T11:23:01.414Z,48.40
2018-04-10T11:25:28.903Z,49.00
2018-04-10T11:27:56.710Z,48.50
2018-04-10T11:30:24.987Z,49.90
2018-04-10T11:32:53.244Z,47.70
2018-04-10T11:35:20.782Z,47.70
2018-04-10T11:37:48.249Z,47.10
2018-04-10T11:40:15.721Z,49.20
2018-04-10T11:42:43.219Z,46.40
2018-04-10T11:45:10.700Z,47.30
2018-04-10T11:47:38.207Z,48.20
2018-04-10T11:50:06.513Z,48.20
2018-04-10T11:52:33.985Z,48.10
2018-04-10T11:55:01.477Z,49.60
2018-04-10T11:57:28.949Z,47.20
2018-04-10T11:59:57.238Z,46.80
2018-04-10T12:02:25.527Z,47.10
2018-04-10T12:04:53.010Z,47.10
2018-04-10T12:07:20.473Z,48.20
2018-04-10T12:09:48.726Z,45.00
2018-04-10T12:12:16.278Z,44.90
2018-04-10T12:14:43.763Z,45.40
2018-04-10T12:17:11.232Z,45.40
2018-04-10T12:19:38.771Z,46.90
2018-04-10T12:22:06.279Z,45.90
2018-04-10T12:24:34.572Z,41.70
2018-04-10T12:27:02.852Z,43.70
2018-04-10T12:29:31.156Z,44.30
2018-04-10T12:31:58.716Z,44.30
2018-04-10T12:34:26.191Z,44.50
2018-04-10T12:36:53.720Z,44.20
2018-04-10T12:39:21.241Z,46.40
2018-04-10T12:41:48.702Z,44.70
2018-04-10T12:44:16.929Z,44.50
2018-04-10T12:46:44.456Z,44.50
2018-04-10T12:49:11.926Z,40.90
2018-04-10T12:51:39.421Z,40.00
2018-04-10T12:54:06.957Z,40.30
2018-04-10T12:56:34.471Z,40.80
2018-04-10T12:59:02.709Z,40.80
2018-04-10T13:01:30.221Z,40.80
2018-04-10T13:03:57.709Z,41.90
2018-04-10T13:06:25.212Z,41.10
2018-04-10T13:08:53.485Z,42.20
2018-04-10T13:11:21.790Z,44.10
2018-04-10T13:13:49.289Z,44.10
2018-04-10T13:16:16.841Z,42.10
2018-04-10T13:18:45.125Z,42.30
2018-04-10T13:21:12.606Z,42.00
2018-04-10T13:23:40.905Z,41.60
2018-04-10T13:26:09.149Z,41.90
2018-04-10T13:28:36.648Z,41.80
2018-04-10T13:31:04.121Z,40.90
2018-04-10T13:33:31.650Z,40.80
2018-04-10T13:35:59.896Z,38.60
2018-04-10T13:38:27.402Z,38.60
2018-04-10T13:40:54.873Z,43.40
2018-04-10T13:43:22.977Z,42.50
2018-04-10T13:45:50.506Z,42.60
2018-04-10T13:48:18.025Z,42.80
2018-04-10T13:50:46.298Z,42.90
2018-04-10T13:53:14.591Z,41.90
2018-04-10T13:55:42.153Z,41.80
2018-04-10T13:58:09.625Z,42.50
2018-04-10T14:00:37.139Z,42.40
2018-04-10T14:03:05.416Z,39.60
2018-04-10T14:05:33.657Z,38.70
2018-04-10T14:08:01.134Z,38.60
2018-04-10T14:10:28.608Z,36.50
2018-04-10T14:12:56.894Z,37.20
2018-04-10T14:15:25.156Z,40.20
2018-04-10T14:17:53.420Z,38.80
2018-04-10T14:20:20.916Z,38.80
2018-04-10T14:22:48.402Z,42.50
2018-04-10T14:25:15.874Z,41.40
2018-04-10T14:27:43.416Z,41.80
2018-04-10T14:30:10.874Z,42.40
2018-04-10T14:32:38.443Z,44.10
2018-04-10T14:35:05.932Z,44.50
2018-04-10T14:37:34.170Z,46.40
2018-04-10T14:40:01.645Z,46.40
2018-04-10T14:42:29.179Z,47.60
2018-04-10T14:44:56.667Z,47.50
2018-04-10T14:47:24.181Z,47.20
2018-04-10T14:49:51.726Z,46.40
2018-04-10T14:52:19.206Z,45.10
2018-04-10T14:54:46.872Z,44.80
2018-04-10T14:57:14.393Z,45.60
2018-04-10T14:59:41.889Z,45.60
2018-04-10T15:02:09.395Z,47.10
2018-04-10T15:04:37.724Z,48.00
2018-04-10T15:07:05.182Z,48.00
2018-04-10T15:09:32.641Z,48.00
2018-04-10T15:12:00.142Z,46.10
2018-04-10T15:14:28.414Z,46.20
2018-04-10T15:16:56.683Z,46.60
2018-04-10T15:19:24.195Z,46.60
2018-04-10T15:21:51.657Z,47.60
2018-04-10T15:24:19.158Z,46.50
2018-04-10T15:26:46.638Z,46.20
2018-04-10T15:29:14.125Z,47.00
2018-04-10T15:31:41.644Z,47.30
2018-04-10T15:34:09.933Z,47.20
2018-04-10T15:36:37.710Z,47.20
2018-04-10T15:39:06.086Z,48.00
2018-04-10T15:41:33.594Z,48.60
2018-04-10T15:44:01.113Z,49.00
2018-04-10T15:46:28.590Z,49.40
2018-04-10T15:48:56.077Z,48.80
2018-04-10T15:51:24.349Z,48.30
2018-04-10T15:53:51.867Z,48.30
2018-04-10T15:56:19.391Z,48.00
2018-04-10T15:58:47.618Z,48.90
2018-04-10T16:01:15.135Z,48.90
2018-04-10T16:03:42.643Z,49.40
2018-04-10T16:11:15.096Z,49.00
2018-04-10T16:13:42.598Z,48.60
2018-04-10T16:16:10.062Z,47.50
2018-04-10T16:18:37.570Z,48.30
2018-04-10T16:21:05.082Z,48.50
2018-04-10T16:23:32.542Z,49.70
2018-04-10T16:26:00.002Z,49.30
2018-04-10T16:28:27.485Z,50.00
2018-04-10T16:30:54.999Z,49.70
2018-04-10T16:33:22.491Z,50.10
2018-04-10T16:35:50.746Z,50.10
2018-04-10T16:38:18.213Z,50.10
2018-04-10T16:40:46.491Z,50.20
2018-04-10T16:43:13.998Z,50.20
2018-04-10T16:45:41.494Z,50.80
2018-04-10T16:48:09.130Z,51.50
2018-04-10T16:50:36.671Z,50.10
2018-04-10T16:53:04.175Z,50.60
2018-04-10T16:55:31.676Z,50.50
2018-04-10T16:57:59.161Z,51.30
2018-04-10T17:00:26.663Z,52.60
2018-04-10T17:02:55.002Z,52.50
2018-04-10T17:05:22.492Z,52.50
2018-04-10T17:07:50.741Z,53.20
2018-04-10T17:10:18.239Z,53.20
2018-04-10T17:12:46.629Z,52.90
2018-04-10T17:15:14.125Z,53.20
2018-04-10T17:17:42.613Z,53.60
2018-04-10T17:20:10.115Z,53.50
2018-04-10T17:22:38.355Z,54.20
2018-04-10T17:25:05.841Z,54.20
2018-04-10T17:27:34.077Z,54.70
2018-04-10T17:30:01.578Z,54.70
2018-04-10T17:32:29.892Z,54.80
2018-04-10T17:34:57.407Z,54.80
2018-04-10T17:37:25.690Z,55.60
2018-04-10T17:39:53.961Z,55.20
2018-04-10T17:42:22.276Z,55.30
2018-04-10T17:44:49.830Z,55.30
2018-04-10T17:47:17.356Z,55.60
2018-04-10T17:49:46.625Z,56.10
2018-04-10T17:52:14.141Z,56.00
2018-04-10T17:54:41.625Z,55.80
2018-04-10T17:57:11.096Z,55.90
2018-04-10T17:59:38.578Z,56.30
2018-04-10T18:02:07.049Z,56.90
2018-04-10T18:04:34.519Z,57.20
2018-04-10T18:07:02.043Z,57.60
2018-04-10T18:09:29.581Z,57.40
2018-04-10T18:11:57.867Z,58.00
2018-04-10T18:14:25.407Z,57.90
2018-04-10T18:16:54.556Z,58.50
2018-04-10T18:19:22.015Z,58.00
2018-04-10T18:21:49.544Z,58.50
2018-04-10T18:24:17.047Z,58.90
2018-04-10T18:26:45.544Z,59.40
2018-04-10T18:29:13.016Z,59.80
2018-04-10T18:31:41.294Z,60.50
2018-04-10T18:34:09.537Z,61.20
2018-04-10T18:36:37.074Z,61.10
2018-04-10T18:39:05.470Z,61.30
2018-04-10T18:41:33.024Z,60.90
2018-04-10T18:44:00.642Z,61.30
2018-04-10T18:46:28.109Z,60.60
2018-04-10T18:48:55.655Z,60.70
2018-04-10T18:51:23.953Z,62.20
2018-04-10T18:53:51.471Z,62.20
2018-04-10T18:56:19.036Z,62.40
2018-04-10T18:58:47.337Z,63.10
2018-04-10T19:01:14.858Z,63.10
2018-04-10T19:03:42.333Z,63.40
2018-04-10T19:06:11.598Z,64.30
2018-04-10T19:08:39.096Z,64.20
2018-04-10T19:11:06.633Z,64.10
2018-04-10T19:13:34.163Z,65.20
2018-04-10T19:16:01.642Z,65.90
2018-04-10T19:18:29.122Z,66.10
2018-04-10T19:20:57.405Z,66.70
2018-04-10T19:23:24.915Z,66.70
2018-04-10T19:25:52.401Z,67.00
2018-04-10T19:28:21.675Z,68.60
2018-04-10T19:30:49.216Z,68.60
2018-04-10T19:33:16.744Z,69.80
2018-04-10T19:35:44.263Z,70.60
2018-04-10T19:38:11.767Z,71.00
2018-04-10T19:40:39.291Z,70.70
2018-04-10T19:43:06.757Z,69.90
2018-04-10T19:45:35.025Z,69.40
2018-04-10T19:48:03.326Z,69.80
2018-04-10T19:50:30.896Z,69.70
2018-04-10T19:52:58.478Z,69.50
2018-04-10T19:55:25.993Z,69.10
2018-04-10T19:57:54.262Z,69.70
2018-04-10T20:00:22.514Z,70.40
2018-04-10T20:02:50.972Z,70.40
2018-04-10T20:05:18.521Z,70.20
2018-04-10T20:07:47.009Z,70.70
2018-04-10T20:10:14.521Z,71.20
2018-04-10T20:12:42.771Z,71.40
2018-04-10T20:15:10.256Z,71.40
2018-04-10T20:17:37.736Z,72.90
2018-04-10T20:20:05.218Z,72.60
2018-04-10T20:22:32.713Z,72.20
2018-04-10T20:25:00.953Z,75.10
2018-04-10T20:27:28.500Z,75.00
2018-04-10T20:29:57.952Z,75.40
2018-04-10T20:32:26.235Z,73.40
2018-04-10T20:34:54.519Z,73.80
2018-04-10T20:37:22.039Z,73.00
2018-04-10T20:39:49.557Z,72.60
2018-04-10T20:42:17.066Z,72.50
2018-04-10T20:44:44.650Z,72.30
2018-04-10T20:47:14.817Z,72.40
2018-04-10T20:49:42.331Z,72.40
2018-04-10T20:52:10.601Z,72.10
2018-04-10T20:54:38.903Z,72.40
2018-04-10T20:57:06.417Z,72.30
2018-04-10T20:59:33.924Z,72.30
2018-04-10T21:02:01.418Z,72.70
2018-04-10T21:04:28.934Z,72.70
2018-04-10T21:06:56.453Z,73.30
2018-04-10T21:09:23.963Z,73.30
2018-04-10T21:11:51.429Z,73.80
2018-04-10T21:14:18.912Z,74.20
2018-04-10T21:16:46.452Z,75.10
2018-04-10T21:19:13.984Z,75.50
2018-04-10T21:21:41.453Z,76.10
2018-04-10T21:24:09.004Z,76.70
2018-04-10T21:26:36.509Z,76.70
2018-04-10T21:29:04.016Z,77.30
2018-04-10T21:31:31.550Z,78.00
2018-04-10T21:33:59.818Z,77.70
2018-04-10T21:36:28.111Z,76.60
2018-04-10T21:38:55.679Z,76.50
2018-04-10T21:41:23.195Z,76.50
2018-04-10T21:43:50.700Z,76.20
2018-04-10T21:46:18.251Z,75.60
2018-04-10T21:48:45.799Z,75.70
2018-04-10T21:51:14.031Z,75.40
2018-04-10T21:53:41.573Z,75.40
2018-04-10T21:56:09.062Z,75.50
2018-04-10T21:58:36.579Z,75.20
2018-04-10T22:01:04.132Z,75.40
2018-04-10T22:03:31.655Z,75.70
2018-04-10T22:05:59.933Z,77.50
2018-04-10T22:08:28.218Z,77.60
2018-04-10T22:10:55.738Z,77.60
2018-04-10T22:13:23.274Z,78.00
2018-04-10T22:15:50.824Z,77.60
2018-04-10T22:18:18.346Z,77.60
2018-04-10T22:20:46.606Z,77.20
2018-04-10T22:23:14.895Z,77.10
2018-04-10T22:25:43.138Z,76.80
2018-04-10T22:28:10.755Z,76.70
2018-04-10T22:30:38.283Z,76.70
2018-04-10T22:33:06.568Z,77.20
2018-04-10T22:35:34.106Z,77.20
2018-04-10T22:38:01.617Z,77.20
2018-04-10T22:40:29.106Z,77.90
2018-04-10T22:42:57.338Z,79.40
2018-04-10T22:45:24.880Z,79.30
2018-04-10T22:47:52.354Z,79.50
2018-04-10T22:50:19.833Z,79.70
2018-04-10T22:52:47.351Z,79.00
2018-04-10T22:55:14.887Z,79.40
2018-04-10T22:57:42.416Z,80.10
2018-04-10T23:00:10.668Z,80.60
2018-04-10T23:02:38.141Z,80.60
2018-04-10T23:05:06.485Z,82.10
2018-04-10T23:07:33.970Z,81.20
2018-04-10T23:10:01.483Z,81.80
2018-04-10T23:12:28.975Z,82.40
2018-04-10T23:14:56.508Z,83.30
2018-04-10T23:17:24.003Z,84.60
2018-04-10T23:19:51.515Z,85.40
2018-04-10T23:22:18.999Z,86.80
2018-04-10T23:24:46.499Z,87.70
2018-04-10T23:27:13.988Z,88.80
2018-04-10T23:29:42.315Z,90.00
2018-04-10T23:32:09.847Z,90.00
2018-04-10T23:34:37.333Z,90.50
2018-04-10T23:37:04.871Z,91.00
2018-04-10T23:39:32.371Z,91.50
2018-04-10T23:41:59.841Z,92.20
2018-04-10T23:44:27.328Z,92.50
2018-04-10T23:46:54.839Z,93.10
2018-04-10T23:49:22.335Z,93.50
2018-04-10T23:51:50.607Z,93.90
2018-04-10T23:54:18.908Z,94.40
2018-04-10T23:56:46.364Z,94.40
2018-04-10T23:59:13.880Z,94.60
